sensor_id;sensor_type;location;lat;lon;timestamp;P1;durP1;ratioP1;P2;durP2;ratioP2
12788;SDS011;6458;42.710;23.192;2023-04-03T00:01:15;14.07;;;7.93;;
12788;SDS011;6458;42.710;23.192;2023-04-03T00:03:42;13.83;;;7.40;;
12788;SDS011;6458;42.710;23.192;2023-04-03T00:06:09;6.37;;;5.50;;
12788;SDS011;6458;42.710;23.192;2023-04-03T00:08:37;8.87;;;6.60;;
12788;SDS011;6458;42.710;23.192;2023-04-03T00:11:04;6.60;;;4.57;;
12788;SDS011;6458;42.710;23.192;2023-04-03T00:13:31;5.37;;;4.30;;
12788;SDS011;6458;42.710;23.192;2023-04-03T00:15:58;9.03;;;5.17;;
12788;SDS011;6458;42.710;23.192;2023-04-03T00:18:26;9.53;;;5.73;;
12788;SDS011;6458;42.710;23.192;2023-04-03T00:20:52;12.27;;;8.17;;
12788;SDS011;6458;42.710;23.192;2023-04-03T00:23:19;9.17;;;6.20;;
12788;SDS011;6458;42.710;23.192;2023-04-03T00:25:48;8.57;;;6.07;;
12788;SDS011;6458;42.710;23.192;2023-04-03T00:28:15;7.67;;;4.33;;
12788;SDS011;6458;42.710;23.192;2023-04-03T00:30:42;4.67;;;4.20;;
12788;SDS011;6458;42.710;23.192;2023-04-03T00:33:09;6.90;;;5.10;;
12788;SDS011;6458;42.710;23.192;2023-04-03T00:35:38;5.23;;;4.80;;
12788;SDS011;6458;42.710;23.192;2023-04-03T00:38:04;5.50;;;4.77;;
12788;SDS011;6458;42.710;23.192;2023-04-03T00:40:33;4.60;;;4.20;;
12788;SDS011;6458;42.710;23.192;2023-04-03T00:43:00;5.27;;;4.67;;
12788;SDS011;6458;42.710;23.192;2023-04-03T00:45:32;4.53;;;4.13;;
12788;SDS011;6458;42.710;23.192;2023-04-03T00:47:59;5.43;;;4.83;;
12788;SDS011;6458;42.710;23.192;2023-04-03T00:50:26;5.60;;;4.40;;
12788;SDS011;6458;42.710;23.192;2023-04-03T00:52:55;7.20;;;5.40;;
12788;SDS011;6458;42.710;23.192;2023-04-03T00:55:21;5.87;;;5.10;;
12788;SDS011;6458;42.710;23.192;2023-04-03T00:57:48;6.20;;;5.60;;
12788;SDS011;6458;42.710;23.192;2023-04-03T01:00:16;5.40;;;4.87;;
12788;SDS011;6458;42.710;23.192;2023-04-03T01:02:45;4.50;;;4.10;;
12788;SDS011;6458;42.710;23.192;2023-04-03T01:05:11;3.70;;;3.40;;
12788;SDS011;6458;42.710;23.192;2023-04-03T01:07:39;5.83;;;4.53;;
12788;SDS011;6458;42.710;23.192;2023-04-03T01:10:08;4.77;;;3.70;;
12788;SDS011;6458;42.710;23.192;2023-04-03T01:12:39;2.87;;;2.67;;
12788;SDS011;6458;42.710;23.192;2023-04-03T01:15:07;3.67;;;3.23;;
12788;SDS011;6458;42.710;23.192;2023-04-03T01:17:35;3.50;;;3.20;;
12788;SDS011;6458;42.710;23.192;2023-04-03T01:20:14;3.93;;;3.40;;
12788;SDS011;6458;42.710;23.192;2023-04-03T01:22:44;3.37;;;3.00;;
12788;SDS011;6458;42.710;23.192;2023-04-03T01:25:16;3.00;;;2.80;;
12788;SDS011;6458;42.710;23.192;2023-04-03T01:27:43;3.20;;;3.00;;
12788;SDS011;6458;42.710;23.192;2023-04-03T01:30:10;3.53;;;3.33;;
12788;SDS011;6458;42.710;23.192;2023-04-03T01:32:40;4.13;;;3.83;;
12788;SDS011;6458;42.710;23.192;2023-04-03T01:35:08;3.80;;;3.50;;
12788;SDS011;6458;42.710;23.192;2023-04-03T01:37:34;4.73;;;4.27;;
12788;SDS011;6458;42.710;23.192;2023-04-03T01:40:02;3.73;;;3.27;;
12788;SDS011;6458;42.710;23.192;2023-04-03T01:42:29;3.20;;;2.90;;
12788;SDS011;6458;42.710;23.192;2023-04-03T01:44:55;2.37;;;2.27;;
12788;SDS011;6458;42.710;23.192;2023-04-03T01:47:22;2.80;;;2.70;;
12788;SDS011;6458;42.710;23.192;2023-04-03T01:49:50;2.50;;;2.40;;
12788;SDS011;6458;42.710;23.192;2023-04-03T01:52:17;2.43;;;2.33;;
12788;SDS011;6458;42.710;23.192;2023-04-03T01:54:44;2.23;;;2.23;;
12788;SDS011;6458;42.710;23.192;2023-04-03T01:57:12;2.40;;;2.33;;
12788;SDS011;6458;42.710;23.192;2023-04-03T01:59:40;2.70;;;2.60;;
12788;SDS011;6458;42.710;23.192;2023-04-03T02:02:07;2.30;;;2.20;;
12788;SDS011;6458;42.710;23.192;2023-04-03T02:04:34;2.50;;;2.40;;
12788;SDS011;6458;42.710;23.192;2023-04-03T02:07:02;2.67;;;2.57;;
12788;SDS011;6458;42.710;23.192;2023-04-03T02:09:29;3.67;;;2.63;;
12788;SDS011;6458;42.710;23.192;2023-04-03T02:11:55;3.07;;;2.33;;
12788;SDS011;6458;42.710;23.192;2023-04-03T02:14:22;4.50;;;4.10;;
12788;SDS011;6458;42.710;23.192;2023-04-03T02:16:49;3.70;;;3.40;;
12788;SDS011;6458;42.710;23.192;2023-04-03T02:19:15;4.00;;;3.70;;
12788;SDS011;6458;42.710;23.192;2023-04-03T02:21:42;3.27;;;2.97;;
12788;SDS011;6458;42.710;23.192;2023-04-03T02:24:11;4.63;;;4.23;;
12788;SDS011;6458;42.710;23.192;2023-04-03T02:26:38;5.43;;;4.57;;
12788;SDS011;6458;42.710;23.192;2023-04-03T02:29:05;9.63;;;6.57;;
12788;SDS011;6458;42.710;23.192;2023-04-03T02:31:31;14.47;;;9.33;;
12788;SDS011;6458;42.710;23.192;2023-04-03T02:33:58;4.77;;;4.27;;
12788;SDS011;6458;42.710;23.192;2023-04-03T02:36:25;3.60;;;3.40;;
12788;SDS011;6458;42.710;23.192;2023-04-03T02:38:51;3.33;;;3.13;;
12788;SDS011;6458;42.710;23.192;2023-04-03T02:41:20;3.20;;;3.00;;
12788;SDS011;6458;42.710;23.192;2023-04-03T02:43:47;3.40;;;3.20;;
12788;SDS011;6458;42.710;23.192;2023-04-03T02:46:13;4.47;;;4.13;;
12788;SDS011;6458;42.710;23.192;2023-04-03T02:48:40;4.57;;;4.17;;
12788;SDS011;6458;42.710;23.192;2023-04-03T02:51:07;4.33;;;4.00;;
12788;SDS011;6458;42.710;23.192;2023-04-03T02:53:34;4.00;;;3.70;;
12788;SDS011;6458;42.710;23.192;2023-04-03T02:56:00;3.40;;;3.20;;
12788;SDS011;6458;42.710;23.192;2023-04-03T02:58:28;3.23;;;3.13;;
12788;SDS011;6458;42.710;23.192;2023-04-03T03:00:55;3.20;;;3.07;;
12788;SDS011;6458;42.710;23.192;2023-04-03T03:03:22;4.53;;;3.20;;
12788;SDS011;6458;42.710;23.192;2023-04-03T03:05:49;3.30;;;2.93;;
12788;SDS011;6458;42.710;23.192;2023-04-03T03:08:15;3.30;;;3.10;;
12788;SDS011;6458;42.710;23.192;2023-04-03T03:10:45;3.90;;;3.63;;
12788;SDS011;6458;42.710;23.192;2023-04-03T03:13:11;11.13;;;6.43;;
12788;SDS011;6458;42.710;23.192;2023-04-03T03:15:40;8.87;;;6.07;;
12788;SDS011;6458;42.710;23.192;2023-04-03T03:18:06;5.57;;;5.07;;
12788;SDS011;6458;42.710;23.192;2023-04-03T03:20:33;3.80;;;3.60;;
12788;SDS011;6458;42.710;23.192;2023-04-03T03:23:00;4.00;;;3.80;;
12788;SDS011;6458;42.710;23.192;2023-04-03T03:25:27;4.73;;;4.17;;
12788;SDS011;6458;42.710;23.192;2023-04-03T03:27:56;4.67;;;4.27;;
12788;SDS011;6458;42.710;23.192;2023-04-03T03:30:23;4.87;;;4.47;;
12788;SDS011;6458;42.710;23.192;2023-04-03T03:32:54;4.37;;;3.97;;
12788;SDS011;6458;42.710;23.192;2023-04-03T03:35:20;4.30;;;3.90;;
12788;SDS011;6458;42.710;23.192;2023-04-03T03:37:47;6.63;;;5.73;;
12788;SDS011;6458;42.710;23.192;2023-04-03T03:40:14;5.50;;;5.10;;
12788;SDS011;6458;42.710;23.192;2023-04-03T03:42:40;5.23;;;4.80;;
12788;SDS011;6458;42.710;23.192;2023-04-03T03:45:08;5.23;;;4.83;;
12788;SDS011;6458;42.710;23.192;2023-04-03T03:47:35;9.67;;;6.60;;
12788;SDS011;6458;42.710;23.192;2023-04-03T03:50:04;6.10;;;5.37;;
12788;SDS011;6458;42.710;23.192;2023-04-03T03:52:30;4.60;;;4.23;;
12788;SDS011;6458;42.710;23.192;2023-04-03T03:54:57;3.63;;;3.43;;
12788;SDS011;6458;42.710;23.192;2023-04-03T03:57:24;4.90;;;3.40;;
12788;SDS011;6458;42.710;23.192;2023-04-03T03:59:53;3.70;;;3.40;;
12788;SDS011;6458;42.710;23.192;2023-04-03T04:02:20;3.13;;;2.93;;
12788;SDS011;6458;42.710;23.192;2023-04-03T04:04:47;2.97;;;2.87;;
12788;SDS011;6458;42.710;23.192;2023-04-03T04:07:15;2.70;;;2.60;;
12788;SDS011;6458;42.710;23.192;2023-04-03T04:09:42;3.97;;;3.73;;
12788;SDS011;6458;42.710;23.192;2023-04-03T04:12:08;4.43;;;4.20;;
12788;SDS011;6458;42.710;23.192;2023-04-03T04:14:35;5.93;;;5.33;;
12788;SDS011;6458;42.710;23.192;2023-04-03T04:17:02;4.43;;;4.03;;
12788;SDS011;6458;42.710;23.192;2023-04-03T04:19:28;4.33;;;3.97;;
12788;SDS011;6458;42.710;23.192;2023-04-03T04:21:55;7.47;;;5.37;;
12788;SDS011;6458;42.710;23.192;2023-04-03T04:24:24;22.20;;;11.93;;
12788;SDS011;6458;42.710;23.192;2023-04-03T04:26:50;24.43;;;11.37;;
12788;SDS011;6458;42.710;23.192;2023-04-03T04:29:17;16.43;;;7.77;;
12788;SDS011;6458;42.710;23.192;2023-04-03T04:31:44;8.23;;;5.13;;
12788;SDS011;6458;42.710;23.192;2023-04-03T04:34:10;4.27;;;4.00;;
12788;SDS011;6458;42.710;23.192;2023-04-03T04:36:38;4.13;;;3.83;;
12788;SDS011;6458;42.710;23.192;2023-04-03T04:39:04;3.53;;;3.33;;
12788;SDS011;6458;42.710;23.192;2023-04-03T04:41:33;3.90;;;3.60;;
12788;SDS011;6458;42.710;23.192;2023-04-03T04:44:00;4.17;;;3.87;;
12788;SDS011;6458;42.710;23.192;2023-04-03T04:46:27;4.17;;;3.97;;
12788;SDS011;6458;42.710;23.192;2023-04-03T04:48:53;4.40;;;4.00;;
12788;SDS011;6458;42.710;23.192;2023-04-03T04:51:20;4.30;;;4.00;;
12788;SDS011;6458;42.710;23.192;2023-04-03T04:53:47;4.47;;;4.13;;
12788;SDS011;6458;42.710;23.192;2023-04-03T04:56:14;19.70;;;11.43;;
12788;SDS011;6458;42.710;23.192;2023-04-03T04:58:42;27.43;;;15.67;;
12788;SDS011;6458;42.710;23.192;2023-04-03T05:01:09;17.63;;;11.13;;
12788;SDS011;6458;42.710;23.192;2023-04-03T05:03:36;34.60;;;17.57;;
12788;SDS011;6458;42.710;23.192;2023-04-03T05:06:03;34.13;;;19.00;;
12788;SDS011;6458;42.710;23.192;2023-04-03T05:08:30;34.90;;;18.00;;
12788;SDS011;6458;42.710;23.192;2023-04-03T05:10:57;22.13;;;13.53;;
12788;SDS011;6458;42.710;23.192;2023-04-03T05:13:23;16.77;;;10.07;;
12788;SDS011;6458;42.710;23.192;2023-04-03T05:15:52;13.97;;;8.83;;
12788;SDS011;6458;42.710;23.192;2023-04-03T05:18:18;14.63;;;10.50;;
12788;SDS011;6458;42.710;23.192;2023-04-03T05:20:47;15.40;;;11.47;;
12788;SDS011;6458;42.710;23.192;2023-04-03T05:23:14;13.90;;;10.50;;
12788;SDS011;6458;42.710;23.192;2023-04-03T05:25:41;9.97;;;7.77;;
12788;SDS011;6458;42.710;23.192;2023-04-03T05:28:09;8.40;;;7.53;;
12788;SDS011;6458;42.710;23.192;2023-04-03T05:30:35;7.40;;;6.63;;
12788;SDS011;6458;42.710;23.192;2023-04-03T05:33:04;6.00;;;5.60;;
12788;SDS011;6458;42.710;23.192;2023-04-03T05:35:31;5.10;;;4.70;;
12788;SDS011;6458;42.710;23.192;2023-04-03T05:37:57;4.47;;;4.17;;
12788;SDS011;6458;42.710;23.192;2023-04-03T05:40:24;4.90;;;4.53;;
12788;SDS011;6458;42.710;23.192;2023-04-03T05:42:51;5.60;;;5.10;;
12788;SDS011;6458;42.710;23.192;2023-04-03T05:45:18;4.70;;;4.10;;
12788;SDS011;6458;42.710;23.192;2023-04-03T05:47:45;4.73;;;4.33;;
12788;SDS011;6458;42.710;23.192;2023-04-03T05:50:14;4.37;;;4.00;;
12788;SDS011;6458;42.710;23.192;2023-04-03T05:52:42;3.93;;;3.73;;
12788;SDS011;6458;42.710;23.192;2023-04-03T05:55:09;4.20;;;3.90;;
12788;SDS011;6458;42.710;23.192;2023-04-03T05:57:35;4.07;;;3.77;;
12788;SDS011;6458;42.710;23.192;2023-04-03T06:00:03;4.10;;;3.73;;
12788;SDS011;6458;42.710;23.192;2023-04-03T06:02:30;4.53;;;4.13;;
12788;SDS011;6458;42.710;23.192;2023-04-03T06:04:57;3.83;;;3.63;;
12788;SDS011;6458;42.710;23.192;2023-04-03T06:07:26;4.43;;;4.07;;
12788;SDS011;6458;42.710;23.192;2023-04-03T06:09:54;4.10;;;3.90;;
12788;SDS011;6458;42.710;23.192;2023-04-03T06:12:21;4.90;;;4.50;;
12788;SDS011;6458;42.710;23.192;2023-04-03T06:14:48;5.27;;;4.87;;
12788;SDS011;6458;42.710;23.192;2023-04-03T06:17:15;5.20;;;4.80;;
12788;SDS011;6458;42.710;23.192;2023-04-03T06:19:43;5.50;;;5.00;;
12788;SDS011;6458;42.710;23.192;2023-04-03T06:22:09;5.97;;;5.50;;
12788;SDS011;6458;42.710;23.192;2023-04-03T06:24:39;5.83;;;5.43;;
12788;SDS011;6458;42.710;23.192;2023-04-03T06:27:06;6.50;;;5.03;;
12788;SDS011;6458;42.710;23.192;2023-04-03T06:29:33;5.90;;;5.40;;
12788;SDS011;6458;42.710;23.192;2023-04-03T06:32:00;5.77;;;5.27;;
12788;SDS011;6458;42.710;23.192;2023-04-03T06:34:26;5.03;;;4.63;;
12788;SDS011;6458;42.710;23.192;2023-04-03T06:36:53;4.73;;;4.43;;
12788;SDS011;6458;42.710;23.192;2023-04-03T06:39:21;4.67;;;4.27;;
12788;SDS011;6458;42.710;23.192;2023-04-03T06:41:49;4.90;;;4.53;;
12788;SDS011;6458;42.710;23.192;2023-04-03T06:44:17;4.30;;;3.93;;
12788;SDS011;6458;42.710;23.192;2023-04-03T06:46:44;4.43;;;3.90;;
12788;SDS011;6458;42.710;23.192;2023-04-03T06:49:11;3.07;;;2.97;;
12788;SDS011;6458;42.710;23.192;2023-04-03T06:51:38;3.30;;;3.10;;
12788;SDS011;6458;42.710;23.192;2023-04-03T06:54:05;3.97;;;3.67;;
12788;SDS011;6458;42.710;23.192;2023-04-03T06:56:33;4.17;;;3.87;;
12788;SDS011;6458;42.710;23.192;2023-04-03T06:59:02;4.00;;;3.80;;
12788;SDS011;6458;42.710;23.192;2023-04-03T07:01:29;3.30;;;3.17;;
12788;SDS011;6458;42.710;23.192;2023-04-03T07:03:55;3.70;;;3.40;;
12788;SDS011;6458;42.710;23.192;2023-04-03T07:06:22;3.33;;;3.17;;
12788;SDS011;6458;42.710;23.192;2023-04-03T07:08:51;3.83;;;3.53;;
12788;SDS011;6458;42.710;23.192;2023-04-03T07:11:18;3.70;;;3.50;;
12788;SDS011;6458;42.710;23.192;2023-04-03T07:13:45;3.47;;;3.17;;
12788;SDS011;6458;42.710;23.192;2023-04-03T07:16:13;3.70;;;3.40;;
12788;SDS011;6458;42.710;23.192;2023-04-03T07:18:40;3.33;;;3.13;;
12788;SDS011;6458;42.710;23.192;2023-04-03T07:21:07;3.60;;;3.40;;
12788;SDS011;6458;42.710;23.192;2023-04-03T07:23:33;3.70;;;3.43;;
12788;SDS011;6458;42.710;23.192;2023-04-03T07:26:00;3.87;;;3.63;;
12788;SDS011;6458;42.710;23.192;2023-04-03T07:28:27;3.57;;;3.27;;
12788;SDS011;6458;42.710;23.192;2023-04-03T07:30:59;3.53;;;3.23;;
12788;SDS011;6458;42.710;23.192;2023-04-03T07:33:28;3.60;;;3.30;;
12788;SDS011;6458;42.710;23.192;2023-04-03T07:35:56;4.40;;;4.10;;
12788;SDS011;6458;42.710;23.192;2023-04-03T07:38:23;3.80;;;3.60;;
12788;SDS011;6458;42.710;23.192;2023-04-03T07:40:50;4.33;;;3.93;;
12788;SDS011;6458;42.710;23.192;2023-04-03T07:43:18;3.97;;;3.70;;
12788;SDS011;6458;42.710;23.192;2023-04-03T07:45:45;4.77;;;4.17;;
12788;SDS011;6458;42.710;23.192;2023-04-03T07:48:15;4.33;;;4.03;;
12788;SDS011;6458;42.710;23.192;2023-04-03T07:50:44;4.63;;;3.80;;
12788;SDS011;6458;42.710;23.192;2023-04-03T07:53:11;4.20;;;3.80;;
12788;SDS011;6458;42.710;23.192;2023-04-03T07:55:38;4.00;;;3.80;;
12788;SDS011;6458;42.710;23.192;2023-04-03T07:58:08;3.80;;;3.60;;
12788;SDS011;6458;42.710;23.192;2023-04-03T08:00:34;3.17;;;3.03;;
12788;SDS011;6458;42.710;23.192;2023-04-03T08:03:01;3.37;;;3.27;;
12788;SDS011;6458;42.710;23.192;2023-04-03T08:05:28;3.53;;;3.30;;
12788;SDS011;6458;42.710;23.192;2023-04-03T08:07:56;3.63;;;3.33;;
12788;SDS011;6458;42.710;23.192;2023-04-03T08:10:22;3.83;;;3.50;;
12788;SDS011;6458;42.710;23.192;2023-04-03T08:12:49;3.60;;;3.30;;
12788;SDS011;6458;42.710;23.192;2023-04-03T08:15:16;3.90;;;3.60;;
12788;SDS011;6458;42.710;23.192;2023-04-03T08:17:43;3.83;;;3.53;;
12788;SDS011;6458;42.710;23.192;2023-04-03T08:20:10;3.70;;;3.57;;
12788;SDS011;6458;42.710;23.192;2023-04-03T08:22:37;3.67;;;3.47;;
12788;SDS011;6458;42.710;23.192;2023-04-03T08:25:06;3.67;;;3.47;;
12788;SDS011;6458;42.710;23.192;2023-04-03T08:27:33;4.40;;;4.00;;
12788;SDS011;6458;42.710;23.192;2023-04-03T08:29:59;3.83;;;3.53;;
12788;SDS011;6458;42.710;23.192;2023-04-03T08:32:26;4.03;;;3.73;;
12788;SDS011;6458;42.710;23.192;2023-04-03T08:34:53;3.83;;;3.60;;
12788;SDS011;6458;42.710;23.192;2023-04-03T08:37:20;4.47;;;4.17;;
12788;SDS011;6458;42.710;23.192;2023-04-03T08:39:47;6.00;;;4.63;;
12788;SDS011;6458;42.710;23.192;2023-04-03T08:42:17;5.93;;;4.53;;
12788;SDS011;6458;42.710;23.192;2023-04-03T08:44:46;5.13;;;4.50;;
12788;SDS011;6458;42.710;23.192;2023-04-03T08:47:17;5.00;;;4.60;;
12788;SDS011;6458;42.710;23.192;2023-04-03T08:49:45;6.57;;;5.20;;
12788;SDS011;6458;42.710;23.192;2023-04-03T08:52:17;5.47;;;5.00;;
12788;SDS011;6458;42.710;23.192;2023-04-03T08:54:48;6.77;;;6.27;;
12788;SDS011;6458;42.710;23.192;2023-04-03T08:57:17;7.57;;;6.70;;
12788;SDS011;6458;42.710;23.192;2023-04-03T08:59:44;7.90;;;7.20;;
12788;SDS011;6458;42.710;23.192;2023-04-03T09:04:58;6.97;;;6.30;;
12788;SDS011;6458;42.710;23.192;2023-04-03T09:07:30;7.00;;;6.30;;
12788;SDS011;6458;42.710;23.192;2023-04-03T09:09:59;6.40;;;5.87;;
12788;SDS011;6458;42.710;23.192;2023-04-03T09:12:28;5.97;;;5.50;;
12788;SDS011;6458;42.710;23.192;2023-04-03T09:15:00;8.07;;;6.20;;
12788;SDS011;6458;42.710;23.192;2023-04-03T09:17:41;6.63;;;6.07;;
12788;SDS011;6458;42.710;23.192;2023-04-03T09:20:13;7.53;;;6.83;;
12788;SDS011;6458;42.710;23.192;2023-04-03T09:22:43;8.80;;;7.43;;
12788;SDS011;6458;42.710;23.192;2023-04-03T09:25:11;7.90;;;7.20;;
12788;SDS011;6458;42.710;23.192;2023-04-03T09:27:40;8.83;;;7.93;;
12788;SDS011;6458;42.710;23.192;2023-04-03T09:30:11;8.63;;;7.90;;
12788;SDS011;6458;42.710;23.192;2023-04-03T09:32:38;9.50;;;8.30;;
12788;SDS011;6458;42.710;23.192;2023-04-03T09:35:10;10.60;;;8.50;;
12788;SDS011;6458;42.710;23.192;2023-04-03T09:37:43;10.77;;;8.43;;
12788;SDS011;6458;42.710;23.192;2023-04-03T09:40:27;13.10;;;9.37;;
12788;SDS011;6458;42.710;23.192;2023-04-03T09:42:56;9.60;;;8.80;;
12788;SDS011;6458;42.710;23.192;2023-04-03T09:45:24;11.17;;;9.40;;
12788;SDS011;6458;42.710;23.192;2023-04-03T09:47:57;10.73;;;9.63;;
12788;SDS011;6458;42.710;23.192;2023-04-03T09:50:30;9.83;;;8.87;;
12788;SDS011;6458;42.710;23.192;2023-04-03T09:52:57;12.53;;;9.57;;
12788;SDS011;6458;42.710;23.192;2023-04-03T09:55:24;10.53;;;9.07;;
12788;SDS011;6458;42.710;23.192;2023-04-03T09:57:57;11.17;;;8.20;;
12788;SDS011;6458;42.710;23.192;2023-04-03T10:00:25;14.60;;;9.93;;
12788;SDS011;6458;42.710;23.192;2023-04-03T10:02:53;9.73;;;8.43;;
12788;SDS011;6458;42.710;23.192;2023-04-03T10:05:25;11.70;;;9.63;;
12788;SDS011;6458;42.710;23.192;2023-04-03T10:07:52;10.37;;;8.93;;
12788;SDS011;6458;42.710;23.192;2023-04-03T10:10:33;13.50;;;9.97;;
12788;SDS011;6458;42.710;23.192;2023-04-03T10:13:05;13.23;;;9.60;;
12788;SDS011;6458;42.710;23.192;2023-04-03T10:15:34;16.77;;;9.53;;
12788;SDS011;6458;42.710;23.192;2023-04-03T10:18:03;12.03;;;10.77;;
12788;SDS011;6458;42.710;23.192;2023-04-03T10:20:34;14.23;;;11.77;;
12788;SDS011;6458;42.710;23.192;2023-04-03T10:23:14;14.37;;;12.87;;
12788;SDS011;6458;42.710;23.192;2023-04-03T10:25:47;16.33;;;11.83;;
12788;SDS011;6458;42.710;23.192;2023-04-03T10:28:19;12.90;;;9.83;;
12788;SDS011;6458;42.710;23.192;2023-04-03T10:30:48;11.17;;;9.37;;
12788;SDS011;6458;42.710;23.192;2023-04-03T10:33:32;13.27;;;10.67;;
12788;SDS011;6458;42.710;23.192;2023-04-03T10:36:08;9.77;;;8.77;;
12788;SDS011;6458;42.710;23.192;2023-04-03T10:38:39;11.67;;;9.93;;
12788;SDS011;6458;42.710;23.192;2023-04-03T10:41:07;10.83;;;9.47;;
12788;SDS011;6458;42.710;23.192;2023-04-03T10:43:40;10.73;;;8.70;;
12788;SDS011;6458;42.710;23.192;2023-04-03T10:46:09;9.50;;;8.37;;
12788;SDS011;6458;42.710;23.192;2023-04-03T10:48:43;10.53;;;9.50;;
12788;SDS011;6458;42.710;23.192;2023-04-03T10:51:16;12.90;;;9.40;;
12788;SDS011;6458;42.710;23.192;2023-04-03T10:53:48;8.63;;;7.73;;
12788;SDS011;6458;42.710;23.192;2023-04-03T10:56:18;9.63;;;7.10;;
12788;SDS011;6458;42.710;23.192;2023-04-03T10:58:48;7.30;;;6.60;;
12788;SDS011;6458;42.710;23.192;2023-04-03T11:01:18;7.97;;;6.20;;
12788;SDS011;6458;42.710;23.192;2023-04-03T11:03:47;6.57;;;6.07;;
12788;SDS011;6458;42.710;23.192;2023-04-03T11:06:15;6.87;;;6.00;;
12788;SDS011;6458;42.710;23.192;2023-04-03T11:08:43;7.60;;;6.90;;
12788;SDS011;6458;42.710;23.192;2023-04-03T11:11:11;5.73;;;5.27;;
12788;SDS011;6458;42.710;23.192;2023-04-03T11:13:40;4.80;;;4.17;;
12788;SDS011;6458;42.710;23.192;2023-04-03T11:16:11;5.10;;;4.70;;
12788;SDS011;6458;42.710;23.192;2023-04-03T11:18:41;5.10;;;4.70;;
12788;SDS011;6458;42.710;23.192;2023-04-03T11:21:11;6.43;;;4.43;;
12788;SDS011;6458;42.710;23.192;2023-04-03T11:23:39;4.83;;;4.50;;
12788;SDS011;6458;42.710;23.192;2023-04-03T11:26:08;6.10;;;5.50;;
12788;SDS011;6458;42.710;23.192;2023-04-03T11:28:35;6.17;;;5.37;;
12788;SDS011;6458;42.710;23.192;2023-04-03T11:31:05;6.43;;;5.77;;
12788;SDS011;6458;42.710;23.192;2023-04-03T11:33:42;7.13;;;6.20;;
12788;SDS011;6458;42.710;23.192;2023-04-03T11:36:12;5.27;;;4.87;;
12788;SDS011;6458;42.710;23.192;2023-04-03T11:38:45;5.93;;;5.50;;
12788;SDS011;6458;42.710;23.192;2023-04-03T11:41:13;5.57;;;5.03;;
12788;SDS011;6458;42.710;23.192;2023-04-03T11:43:41;5.23;;;4.80;;
12788;SDS011;6458;42.710;23.192;2023-04-03T11:46:08;5.13;;;4.73;;
12788;SDS011;6458;42.710;23.192;2023-04-03T11:48:44;6.33;;;5.60;;
12788;SDS011;6458;42.710;23.192;2023-04-03T11:53:56;7.70;;;6.70;;
12788;SDS011;6458;42.710;23.192;2023-04-03T11:56:43;5.70;;;5.30;;
12788;SDS011;6458;42.710;23.192;2023-04-03T11:59:21;5.20;;;4.90;;
12788;SDS011;6458;42.710;23.192;2023-04-03T12:01:48;5.70;;;5.30;;
12788;SDS011;6458;42.710;23.192;2023-04-03T12:04:17;5.80;;;5.30;;
12788;SDS011;6458;42.710;23.192;2023-04-03T12:12:21;5.70;;;5.20;;
12788;SDS011;6458;42.710;23.192;2023-04-03T12:14:48;5.73;;;5.23;;
12788;SDS011;6458;42.710;23.192;2023-04-03T12:17:20;6.00;;;5.60;;
12788;SDS011;6458;42.710;23.192;2023-04-03T12:19:50;7.10;;;6.40;;
12788;SDS011;6458;42.710;23.192;2023-04-03T12:22:17;7.10;;;6.47;;
12788;SDS011;6458;42.710;23.192;2023-04-03T12:24:46;7.30;;;6.60;;
12788;SDS011;6458;42.710;23.192;2023-04-03T12:27:29;6.47;;;5.90;;
12788;SDS011;6458;42.710;23.192;2023-04-03T12:30:00;6.27;;;5.50;;
12788;SDS011;6458;42.710;23.192;2023-04-03T12:32:37;6.50;;;6.03;;
12788;SDS011;6458;42.710;23.192;2023-04-03T12:35:14;5.63;;;5.10;;
12788;SDS011;6458;42.710;23.192;2023-04-03T12:40:26;6.43;;;5.93;;
12788;SDS011;6458;42.710;23.192;2023-04-03T12:43:12;4.63;;;4.23;;
12788;SDS011;6458;42.710;23.192;2023-04-03T12:45:44;4.07;;;3.77;;
12788;SDS011;6458;42.710;23.192;2023-04-03T12:48:14;5.33;;;5.03;;
12788;SDS011;6458;42.710;23.192;2023-04-03T12:50:42;6.57;;;6.10;;
12788;SDS011;6458;42.710;23.192;2023-04-03T12:53:11;5.53;;;5.20;;
12788;SDS011;6458;42.710;23.192;2023-04-03T12:55:39;6.53;;;6.03;;
12788;SDS011;6458;42.710;23.192;2023-04-03T12:58:16;4.93;;;4.63;;
12788;SDS011;6458;42.710;23.192;2023-04-03T13:00:43;5.47;;;5.07;;
12788;SDS011;6458;42.710;23.192;2023-04-03T13:03:20;5.07;;;4.57;;
12788;SDS011;6458;42.710;23.192;2023-04-03T13:05:49;6.13;;;5.73;;
12788;SDS011;6458;42.710;23.192;2023-04-03T13:08:16;7.47;;;5.13;;
12788;SDS011;6458;42.710;23.192;2023-04-03T13:10:50;5.53;;;5.10;;
12788;SDS011;6458;42.710;23.192;2023-04-03T13:13:18;5.23;;;4.93;;
12788;SDS011;6458;42.710;23.192;2023-04-03T13:15:46;7.17;;;6.43;;
12788;SDS011;6458;42.710;23.192;2023-04-03T13:18:24;8.90;;;6.80;;
12788;SDS011;6458;42.710;23.192;2023-04-03T13:20:52;7.43;;;6.73;;
12788;SDS011;6458;42.710;23.192;2023-04-03T13:23:20;7.90;;;7.20;;
12788;SDS011;6458;42.710;23.192;2023-04-03T13:25:48;6.43;;;5.93;;
12788;SDS011;6458;42.710;23.192;2023-04-03T13:28:17;7.77;;;7.00;;
12788;SDS011;6458;42.710;23.192;2023-04-03T13:30:54;6.40;;;6.00;;
12788;SDS011;6458;42.710;23.192;2023-04-03T13:33:22;8.50;;;7.80;;
12788;SDS011;6458;42.710;23.192;2023-04-03T13:35:55;8.87;;;7.97;;
12788;SDS011;6458;42.710;23.192;2023-04-03T13:38:24;8.70;;;7.87;;
12788;SDS011;6458;42.710;23.192;2023-04-03T13:40:51;8.10;;;6.90;;
12788;SDS011;6458;42.710;23.192;2023-04-03T13:43:19;6.00;;;5.50;;
12788;SDS011;6458;42.710;23.192;2023-04-03T13:46:04;9.80;;;8.40;;
12788;SDS011;6458;42.710;23.192;2023-04-03T13:48:36;9.03;;;8.23;;
12788;SDS011;6458;42.710;23.192;2023-04-03T13:51:05;8.50;;;7.87;;
12788;SDS011;6458;42.710;23.192;2023-04-03T13:53:33;7.80;;;6.97;;
12788;SDS011;6458;42.710;23.192;2023-04-03T13:56:07;8.30;;;7.57;;
12788;SDS011;6458;42.710;23.192;2023-04-03T13:58:34;9.10;;;8.30;;
12788;SDS011;6458;42.710;23.192;2023-04-03T14:01:09;9.40;;;8.40;;
12788;SDS011;6458;42.710;23.192;2023-04-03T14:03:39;8.67;;;7.67;;
12788;SDS011;6458;42.710;23.192;2023-04-03T14:06:08;7.90;;;7.10;;
12788;SDS011;6458;42.710;23.192;2023-04-03T14:08:36;9.47;;;8.53;;
12788;SDS011;6458;42.710;23.192;2023-04-03T14:11:02;8.47;;;7.77;;
12788;SDS011;6458;42.710;23.192;2023-04-03T14:13:29;7.60;;;6.90;;
12788;SDS011;6458;42.710;23.192;2023-04-03T14:15:56;8.33;;;7.63;;
12788;SDS011;6458;42.710;23.192;2023-04-03T14:18:23;11.07;;;9.97;;
12788;SDS011;6458;42.710;23.192;2023-04-03T14:20:50;10.00;;;8.37;;
12788;SDS011;6458;42.710;23.192;2023-04-03T14:23:18;8.90;;;7.70;;
12788;SDS011;6458;42.710;23.192;2023-04-03T14:25:45;8.63;;;7.80;;
12788;SDS011;6458;42.710;23.192;2023-04-03T14:28:14;9.47;;;8.63;;
12788;SDS011;6458;42.710;23.192;2023-04-03T14:30:41;10.90;;;9.87;;
12788;SDS011;6458;42.710;23.192;2023-04-03T14:33:09;7.77;;;7.10;;
12788;SDS011;6458;42.710;23.192;2023-04-03T14:35:36;9.40;;;8.47;;
12788;SDS011;6458;42.710;23.192;2023-04-03T14:38:05;10.30;;;9.30;;
12788;SDS011;6458;42.710;23.192;2023-04-03T14:40:34;9.87;;;8.43;;
12788;SDS011;6458;42.710;23.192;2023-04-03T14:43:00;8.63;;;7.83;;
12788;SDS011;6458;42.710;23.192;2023-04-03T14:45:27;7.07;;;6.47;;
12788;SDS011;6458;42.710;23.192;2023-04-03T14:47:54;8.03;;;7.23;;
12788;SDS011;6458;42.710;23.192;2023-04-03T14:50:22;9.13;;;8.23;;
12788;SDS011;6458;42.710;23.192;2023-04-03T14:52:50;9.33;;;8.37;;
12788;SDS011;6458;42.710;23.192;2023-04-03T14:55:19;0.80;;;0.80;;
12788;SDS011;6458;42.710;23.192;2023-04-03T14:57:48;0.80;;;0.80;;
12788;SDS011;6458;42.710;23.192;2023-04-03T15:00:16;0.80;;;0.80;;
12788;SDS011;6458;42.710;23.192;2023-04-03T15:02:43;0.70;;;0.70;;
12788;SDS011;6458;42.710;23.192;2023-04-03T15:05:10;0.80;;;0.80;;
12788;SDS011;6458;42.710;23.192;2023-04-03T15:07:38;0.87;;;0.87;;